Florida State University, Florida
Current Conditions -  °F | °C
As of 10:53 AM on Friday 28 Nov 2014 (Local Time) from KTLH Reporting Station
Few Clouds Few Clouds  
Wind Chill: 47°   Ceiling: Unl
Heat Index: 49°   Visibility: 10mi
Dew Point: 26°   Wind: 6mph
Humidity: 41%   Direction: 10°N
Pressure: 30.41"   Gusts: NA
Location:  30.4396°N, 84.2807°W
Report Text: KTLH 281553Z 01005KT 10SM FEW250 09/M03 A3041 RMK AO2 SLP297 T00941033
Loading
Personal Weather Stations






























Interactive Weather Map New forecast layout! Learn more

10-Day Weather Forecast

Advertisements
Track Severe Weather on mobile